Portada
METAR-TAF:

METAR-TAF

Aeropuertos :

Isla de Margarita, Venezuela

Aeropuerto Internacional del Caribe Santiago Mariño

latitud: 10-55N, longitud: 063-59W, altitud: 23 m

Observación

El informe se hizo hace 1 hora y 54 minutos, a las 04:00 UTC
Temperatura 26°C
Humedad 94%
Presión 1013 hPa
Visibilidad 10 km o más
Nubes dispersas a una altura de 1000 ft

METAR: SVMG 170400Z /////KT 9999 SCT010 26/25 Q1013 NOSIG

Hora: 01:54 (05:54 UTC)

Pronóstico

El informe se hizo hace 1 hora y 54 minutos, a las 04:00 UTC
Pronóstico válido del 17 a las 06 UTC al 18 a las 06 UTC
Viento 4 kt del noreste
Visibilidad 10 km o más
Cielo nuboso a una altura de 1000 ft
Temporalmente
del 17 a las 06 UTC al 17 a las 12 UTC
Viento kt del norte
Nubes dispersas a una altura de 1600 ft

TAF: SVMG 170400Z 1706/1806 05004KT 9999 BKN010 TX33/19Z TN24/11Z TEMPO 1706/1712 00000KT SCT016

Observaciones y pronósticos meteorológicos de más de 4000 aeropuertos (mensajes METAR y TAF).

Los puntos amarillos y rojos representan las estaciones disponibles.

Ponga el ratón en el punto deseado para ver el nombre de la estación.

Haga clic para ver las observaciones y los pronósticos meteorológicos.

Para cambiar el mapa : haga clic en los botones verdes con una cruz de color negro para hacer un zoom, en el botón verde con un guión para alejar o en las flechas verdes para mapas adyacentes.


METAR-TAF: